Thermal, CA

12:23 AM PDT on August 30, 2016 (GMT -0700)
Desert Resorts Regional | | Change Station

Elev -115 ft 33.63 °N, 116.16 °W | Updated 31 minutes ago

Clear
Clear
86 °F
Feels Like 86 °F
N
8
Wind Variable Wind from NW

Today
High -- | Low -- °F
--% Chance of Precip.
Yesterday
High -- | Low -- °F
Precip. -- in
Pressure 29.73 in
Visibility 10.0 miles
Clouds Clear
Dew Point 50 °F
Humidity 29%
Rainfall 0.00 in
Snow Depth Not available.
6:17 AM 7:11 PM
Waning Crescent, 5% visible
METAR KTRM 300652Z AUTO 32007KT 10SM CLR 30/10 A2972 RMK AO2 SLP067 T03000100 TSNO
Pressure 29.73 in
Visibility 10.0 miles
Clouds Clear
Dew Point 50 °F
Humidity 29%
Rainfall 0.00 in
Snow Depth Not available.
6:17 AM 7:11 PM
Waning Crescent, 5% visible
METAR KTRM 300652Z AUTO 32007KT 10SM CLR 30/10 A2972 RMK AO2 SLP067 T03000100 TSNO

10-Day Weather Forecast

Almanac

Astronomy

Aug. 30, 2016 Rise Set
Actual Time
Civil Twilight
Nautical Twilight
Astronomical Twilight
Moon
Length of Visible Light
Length of Day
Tomorrow will be .
, % of the Moon is Illuminated

Today's Extremes

State Highs State Lows

Community

WunderPhotos

Upload Photos

1,935,795 photos uploaded!

WunderBlog® & News

Nearby

Air Quality

  Air Quality AQ Index Pollutant
Not available.

Snow Depth

Station Depth Elevation

Earthquake Activity

City Distance Mag. Time & Date
Minimum magnitude displayed is 2.5.

Coastal Water Temperatures

Place Temperature

Stations

Nearby Weather Stations

Station Location Temp. Windchill Dew Point Humidity Wind Precip. Elev Updated Type
                   

Watches & Warnings

There are currently no watches in effect.